sensor_id;sensor_type;location;lat;lon;timestamp;pressure;altitude;pressure_sealevel;temperature;humidity
63115;BME280;49208;50.874;6.466;2022-09-12T00:00:28;100600.47;;;12.33;100.00
63115;BME280;49208;50.874;6.466;2022-09-12T00:02:56;100605.88;;;12.32;100.00
63115;BME280;49208;50.874;6.466;2022-09-12T00:05:22;100599.72;;;12.30;100.00
63115;BME280;49208;50.874;6.466;2022-09-12T00:07:48;100589.09;;;12.28;100.00
63115;BME280;49208;50.874;6.466;2022-09-12T00:10:14;100595.34;;;12.29;100.00
63115;BME280;49208;50.874;6.466;2022-09-12T00:12:39;100597.06;;;12.30;100.00
63115;BME280;49208;50.874;6.466;2022-09-12T00:15:05;100590.72;;;12.32;100.00
63115;BME280;49208;50.874;6.466;2022-09-12T00:17:33;100580.13;;;12.31;100.00
63115;BME280;49208;50.874;6.466;2022-09-12T00:19:59;100580.22;;;12.28;100.00
63115;BME280;49208;50.874;6.466;2022-09-12T00:22:24;100586.56;;;12.25;100.00
63115;BME280;49208;50.874;6.466;2022-09-12T00:24:50;100583.97;;;12.24;100.00
63115;BME280;49208;50.874;6.466;2022-09-12T00:27:15;100584.09;;;12.21;100.00
63115;BME280;49208;50.874;6.466;2022-09-12T00:29:41;100578.81;;;12.19;100.00
63115;BME280;49208;50.874;6.466;2022-09-12T00:32:06;100578.88;;;12.18;100.00
63115;BME280;49208;50.874;6.466;2022-09-12T00:34:32;100580.72;;;12.16;100.00
63115;BME280;49208;50.874;6.466;2022-09-12T00:36:57;100571.75;;;12.18;100.00
63115;BME280;49208;50.874;6.466;2022-09-12T00:39:22;100572.56;;;12.20;100.00
63115;BME280;49208;50.874;6.466;2022-09-12T00:41:48;100568.94;;;12.21;100.00
63115;BME280;49208;50.874;6.466;2022-09-12T00:51:50;100569.25;;;12.13;100.00
63115;BME280;49208;50.874;6.466;2022-09-12T00:54:20;100568.44;;;12.11;100.00
63115;BME280;49208;50.874;6.466;2022-09-12T00:56:48;100569.34;;;12.12;100.00
63115;BME280;49208;50.874;6.466;2022-09-12T00:59:23;100572.88;;;12.12;100.00
63115;BME280;49208;50.874;6.466;2022-09-12T01:01:49;100560.38;;;12.13;100.00
63115;BME280;49208;50.874;6.466;2022-09-12T01:04:17;100564.00;;;12.12;100.00
63115;BME280;49208;50.874;6.466;2022-09-12T01:06:45;100558.75;;;12.09;100.00
63115;BME280;49208;50.874;6.466;2022-09-12T01:09:15;100562.47;;;12.05;100.00
63115;BME280;49208;50.874;6.466;2022-09-12T01:11:41;100556.41;;;12.01;100.00
63115;BME280;49208;50.874;6.466;2022-09-12T01:14:10;100556.53;;;11.98;100.00
63115;BME280;49208;50.874;6.466;2022-09-12T01:16:36;100548.56;;;11.97;100.00
63115;BME280;49208;50.874;6.466;2022-09-12T01:19:21;100551.38;;;11.93;100.00
63115;BME280;49208;50.874;6.466;2022-09-12T01:34:26;100549.16;;;11.81;100.00
63115;BME280;49208;50.874;6.466;2022-09-12T01:36:27;100542.97;;;11.81;100.00
63115;BME280;49208;50.874;6.466;2022-09-12T01:38:59;100540.31;;;11.81;100.00
63115;BME280;49208;50.874;6.466;2022-09-12T01:47:21;100537.56;;;11.82;100.00
63115;BME280;49208;50.874;6.466;2022-09-12T01:52:27;100537.69;;;11.79;100.00
63115;BME280;49208;50.874;6.466;2022-09-12T01:55:00;100532.41;;;11.78;100.00
63115;BME280;49208;50.874;6.466;2022-09-12T01:57:38;100527.22;;;11.75;100.00
63115;BME280;49208;50.874;6.466;2022-09-12T02:00:08;100525.44;;;11.73;100.00
63115;BME280;49208;50.874;6.466;2022-09-12T02:02:45;100520.16;;;11.72;100.00
63115;BME280;49208;50.874;6.466;2022-09-12T02:05:45;100518.44;;;11.71;100.00
63115;BME280;49208;50.874;6.466;2022-09-12T02:08:21;100521.13;;;11.71;100.00
63115;BME280;49208;50.874;6.466;2022-09-12T02:10:54;100516.78;;;11.68;100.00
63115;BME280;49208;50.874;6.466;2022-09-12T02:15:55;100517.75;;;11.66;100.00
63115;BME280;49208;50.874;6.466;2022-09-12T02:18:25;100515.06;;;11.66;100.00
63115;BME280;49208;50.874;6.466;2022-09-12T02:20:55;100503.56;;;11.65;100.00
63115;BME280;49208;50.874;6.466;2022-09-12T02:23:27;100502.69;;;11.65;100.00
63115;BME280;49208;50.874;6.466;2022-09-12T02:25:59;100511.56;;;11.65;100.00
63115;BME280;49208;50.874;6.466;2022-09-12T02:28:30;100500.06;;;11.63;100.00
63115;BME280;49208;50.874;6.466;2022-09-12T02:37:31;100506.44;;;11.59;100.00
63115;BME280;49208;50.874;6.466;2022-09-12T02:39:55;100499.41;;;11.58;100.00
63115;BME280;49208;50.874;6.466;2022-09-12T02:42:22;100494.94;;;11.59;100.00
63115;BME280;49208;50.874;6.466;2022-09-12T02:44:49;100498.50;;;11.58;100.00
63115;BME280;49208;50.874;6.466;2022-09-12T02:47:30;100500.31;;;11.57;100.00
63115;BME280;49208;50.874;6.466;2022-09-12T02:49:58;100503.78;;;11.59;100.00
63115;BME280;49208;50.874;6.466;2022-09-12T02:52:26;100491.25;;;11.61;100.00
63115;BME280;49208;50.874;6.466;2022-09-12T02:54:52;100485.03;;;11.62;100.00
63115;BME280;49208;50.874;6.466;2022-09-12T02:57:20;100487.56;;;11.65;100.00
63115;BME280;49208;50.874;6.466;2022-09-12T02:59:47;100483.03;;;11.67;100.00
63115;BME280;49208;50.874;6.466;2022-09-12T03:02:23;100482.16;;;11.67;100.00
63115;BME280;49208;50.874;6.466;2022-09-12T03:05:18;100481.16;;;11.69;100.00
63115;BME280;49208;50.874;6.466;2022-09-12T03:08:20;100482.91;;;11.70;100.00
63115;BME280;49208;50.874;6.466;2022-09-12T03:16:29;100476.53;;;11.75;100.00
63115;BME280;49208;50.874;6.466;2022-09-12T03:19:24;100480.97;;;11.74;100.00
63115;BME280;49208;50.874;6.466;2022-09-12T03:22:02;100480.97;;;11.74;100.00
63115;BME280;49208;50.874;6.466;2022-09-12T03:27:03;100480.25;;;11.70;100.00
63115;BME280;49208;50.874;6.466;2022-09-12T03:29:33;100482.84;;;11.72;100.00
63115;BME280;49208;50.874;6.466;2022-09-12T03:31:59;100469.59;;;11.70;100.00
63115;BME280;49208;50.874;6.466;2022-09-12T03:34:26;100488.25;;;11.70;100.00
63115;BME280;49208;50.874;6.466;2022-09-12T03:36:53;100486.44;;;11.71;100.00
63115;BME280;49208;50.874;6.466;2022-09-12T03:39:22;100485.59;;;11.70;100.00
63115;BME280;49208;50.874;6.466;2022-09-12T03:41:49;100487.44;;;11.68;100.00
63115;BME280;49208;50.874;6.466;2022-09-12T03:44:16;100483.06;;;11.66;100.00
63115;BME280;49208;50.874;6.466;2022-09-12T03:46:41;100481.47;;;11.62;100.00
63115;BME280;49208;50.874;6.466;2022-09-12T03:49:06;100476.25;;;11.59;100.00
63115;BME280;49208;50.874;6.466;2022-09-12T03:51:32;100475.41;;;11.58;100.00
63115;BME280;49208;50.874;6.466;2022-09-12T03:53:57;100475.47;;;11.57;100.00
63115;BME280;49208;50.874;6.466;2022-09-12T03:56:23;100479.03;;;11.56;100.00
63115;BME280;49208;50.874;6.466;2022-09-12T03:58:48;100480.78;;;11.57;100.00
63115;BME280;49208;50.874;6.466;2022-09-12T04:01:16;100467.47;;;11.57;100.00
63115;BME280;49208;50.874;6.466;2022-09-12T04:03:43;100465.59;;;11.59;100.00
63115;BME280;49208;50.874;6.466;2022-09-12T04:06:10;100463.75;;;11.61;100.00
63115;BME280;49208;50.874;6.466;2022-09-12T04:08:37;100465.56;;;11.60;100.00
63115;BME280;49208;50.874;6.466;2022-09-12T04:11:08;100469.94;;;11.61;100.00
63115;BME280;49208;50.874;6.466;2022-09-12T04:13:35;100469.06;;;11.61;100.00
63115;BME280;49208;50.874;6.466;2022-09-12T04:16:02;100474.50;;;11.58;100.00
63115;BME280;49208;50.874;6.466;2022-09-12T04:18:28;100463.03;;;11.56;100.00
63115;BME280;49208;50.874;6.466;2022-09-12T04:20:54;100462.13;;;11.57;100.00
63115;BME280;49208;50.874;6.466;2022-09-12T04:23:20;100469.19;;;11.58;100.00
63115;BME280;49208;50.874;6.466;2022-09-12T04:25:56;100464.78;;;11.57;100.00
63115;BME280;49208;50.874;6.466;2022-09-12T04:28:22;100464.03;;;11.53;100.00
63115;BME280;49208;50.874;6.466;2022-09-12T04:30:48;100463.28;;;11.49;100.00
63115;BME280;49208;50.874;6.466;2022-09-12T04:33:14;100461.56;;;11.48;100.00
63115;BME280;49208;50.874;6.466;2022-09-12T04:35:39;100465.13;;;11.47;100.00
63115;BME280;49208;50.874;6.466;2022-09-12T04:38:06;100472.28;;;11.47;100.00
63115;BME280;49208;50.874;6.466;2022-09-12T04:40:31;100459.94;;;11.44;100.00
63115;BME280;49208;50.874;6.466;2022-09-12T04:42:57;100464.41;;;11.44;100.00
63115;BME280;49208;50.874;6.466;2022-09-12T04:45:22;100469.75;;;11.44;100.00
63115;BME280;49208;50.874;6.466;2022-09-12T04:47:48;100453.00;;;11.40;100.00
63115;BME280;49208;50.874;6.466;2022-09-12T04:50:13;100461.84;;;11.41;100.00
63115;BME280;49208;50.874;6.466;2022-09-12T04:52:40;100462.66;;;11.43;100.00
63115;BME280;49208;50.874;6.466;2022-09-12T04:55:07;100461.75;;;11.44;100.00
63115;BME280;49208;50.874;6.466;2022-09-12T04:57:32;100459.94;;;11.44;100.00
63115;BME280;49208;50.874;6.466;2022-09-12T04:59:58;100458.19;;;11.43;100.00
63115;BME280;49208;50.874;6.466;2022-09-12T05:02:24;100458.13;;;11.45;100.00
63115;BME280;49208;50.874;6.466;2022-09-12T05:04:49;100455.53;;;11.43;100.00
63115;BME280;49208;50.874;6.466;2022-09-12T05:07:17;100449.28;;;11.44;100.00
63115;BME280;49208;50.874;6.466;2022-09-12T05:09:43;100453.66;;;11.45;100.00
63115;BME280;49208;50.874;6.466;2022-09-12T05:12:08;100444.75;;;11.46;100.00
63115;BME280;49208;50.874;6.466;2022-09-12T05:14:34;100454.47;;;11.47;100.00
63115;BME280;49208;50.874;6.466;2022-09-12T05:16:59;100445.56;;;11.48;100.00
63115;BME280;49208;50.874;6.466;2022-09-12T05:19:26;100442.75;;;11.51;100.00
63115;BME280;49208;50.874;6.466;2022-09-12T05:21:51;100446.13;;;11.57;100.00
63115;BME280;49208;50.874;6.466;2022-09-12T05:24:17;100452.03;;;11.65;100.00
63115;BME280;49208;50.874;6.466;2022-09-12T05:26:42;100450.97;;;11.69;100.00
63115;BME280;49208;50.874;6.466;2022-09-12T05:29:08;100455.13;;;11.76;100.00
63115;BME280;49208;50.874;6.466;2022-09-12T05:31:33;100456.63;;;11.83;100.00
63115;BME280;49208;50.874;6.466;2022-09-12T05:33:59;100455.41;;;11.92;100.00
63115;BME280;49208;50.874;6.466;2022-09-12T05:36:26;100455.16;;;11.98;100.00
63115;BME280;49208;50.874;6.466;2022-09-12T05:38:53;100454.75;;;12.07;100.00
63115;BME280;49208;50.874;6.466;2022-09-12T05:41:23;100449.00;;;12.18;100.00
63115;BME280;49208;50.874;6.466;2022-09-12T05:43:54;100452.28;;;12.25;100.00
63115;BME280;49208;50.874;6.466;2022-09-12T05:46:21;100456.28;;;12.35;100.00
63115;BME280;49208;50.874;6.466;2022-09-12T05:48:47;100451.50;;;12.43;100.00
63115;BME280;49208;50.874;6.466;2022-09-12T05:51:20;100457.41;;;12.50;100.00
63115;BME280;49208;50.874;6.466;2022-09-12T05:53:51;100461.50;;;12.59;100.00
63115;BME280;49208;50.874;6.466;2022-09-12T05:56:19;100452.34;;;12.64;99.99
63115;BME280;49208;50.874;6.466;2022-09-12T05:58:47;100457.31;;;12.72;99.68
63115;BME280;49208;50.874;6.466;2022-09-12T06:01:17;100464.16;;;12.79;99.23
63115;BME280;49208;50.874;6.466;2022-09-12T06:03:45;100461.22;;;12.85;98.85
63115;BME280;49208;50.874;6.466;2022-09-12T06:06:12;100467.94;;;12.94;98.84
63115;BME280;49208;50.874;6.466;2022-09-12T06:08:39;100465.84;;;13.01;97.75
63115;BME280;49208;50.874;6.466;2022-09-12T06:11:06;100465.56;;;13.07;97.21
63115;BME280;49208;50.874;6.466;2022-09-12T06:13:35;100469.56;;;13.17;97.31
63115;BME280;49208;50.874;6.466;2022-09-12T06:16:06;100469.16;;;13.26;97.19
63115;BME280;49208;50.874;6.466;2022-09-12T06:18:33;100467.88;;;13.35;96.50
63115;BME280;49208;50.874;6.466;2022-09-12T06:21:08;100469.03;;;13.48;96.04
63115;BME280;49208;50.874;6.466;2022-09-12T06:23:35;100466.56;;;13.63;95.35
63115;BME280;49208;50.874;6.466;2022-09-12T06:26:02;100470.41;;;13.76;94.20
63115;BME280;49208;50.874;6.466;2022-09-12T06:28:28;100471.94;;;13.99;93.93
63115;BME280;49208;50.874;6.466;2022-09-12T06:31:00;100474.09;;;14.27;93.06
63115;BME280;49208;50.874;6.466;2022-09-12T06:33:26;100477.22;;;14.72;91.67
63115;BME280;49208;50.874;6.466;2022-09-12T06:35:51;100472.00;;;15.20;89.13
63115;BME280;49208;50.874;6.466;2022-09-12T06:38:17;100471.66;;;15.75;86.94
63115;BME280;49208;50.874;6.466;2022-09-12T06:40:43;100477.69;;;16.41;83.12
63115;BME280;49208;50.874;6.466;2022-09-12T06:43:11;100472.25;;;17.01;80.03
63115;BME280;49208;50.874;6.466;2022-09-12T06:45:38;100473.69;;;17.50;75.48
63115;BME280;49208;50.874;6.466;2022-09-12T06:48:03;100460.81;;;17.96;75.04
63115;BME280;49208;50.874;6.466;2022-09-12T06:50:29;100468.28;;;18.46;73.83
63115;BME280;49208;50.874;6.466;2022-09-12T06:52:54;100460.16;;;18.86;71.57
63115;BME280;49208;50.874;6.466;2022-09-12T06:55:19;100456.41;;;19.14;69.29
63115;BME280;49208;50.874;6.466;2022-09-12T06:57:45;100458.56;;;19.22;67.95
63115;BME280;49208;50.874;6.466;2022-09-12T07:00:11;100460.69;;;19.29;67.00
63115;BME280;49208;50.874;6.466;2022-09-12T07:02:36;100464.66;;;19.49;67.41
63115;BME280;49208;50.874;6.466;2022-09-12T07:05:02;100459.91;;;19.53;65.96
63115;BME280;49208;50.874;6.466;2022-09-12T07:07:27;100461.75;;;19.39;66.51
63115;BME280;49208;50.874;6.466;2022-09-12T07:09:52;100459.94;;;19.27;67.17
63115;BME280;49208;50.874;6.466;2022-09-12T07:12:18;100458.75;;;19.18;65.99
63115;BME280;49208;50.874;6.466;2022-09-12T07:14:43;100464.75;;;19.48;66.25
63115;BME280;49208;50.874;6.466;2022-09-12T07:17:09;100467.97;;;20.03;64.24
63115;BME280;49208;50.874;6.466;2022-09-12T07:19:34;100462.50;;;20.97;61.58
63115;BME280;49208;50.874;6.466;2022-09-12T07:22:00;100468.09;;;22.07;59.45
63115;BME280;49208;50.874;6.466;2022-09-12T07:24:25;100477.88;;;22.84;55.45
63115;BME280;49208;50.874;6.466;2022-09-12T07:26:50;100470.22;;;23.51;55.06
63115;BME280;49208;50.874;6.466;2022-09-12T07:29:16;100471.41;;;24.28;52.74
63115;BME280;49208;50.874;6.466;2022-09-12T07:31:42;100470.00;;;24.82;49.96
63115;BME280;49208;50.874;6.466;2022-09-12T07:34:07;100474.13;;;25.43;48.07
63115;BME280;49208;50.874;6.466;2022-09-12T07:36:33;100468.59;;;25.80;48.50
63115;BME280;49208;50.874;6.466;2022-09-12T07:38:59;100467.97;;;26.14;46.50
63115;BME280;49208;50.874;6.466;2022-09-12T07:41:26;100470.56;;;26.16;47.06
63115;BME280;49208;50.874;6.466;2022-09-12T07:43:56;100471.66;;;25.77;46.74
63115;BME280;49208;50.874;6.466;2022-09-12T07:46:23;100475.22;;;25.50;48.56
63115;BME280;49208;50.874;6.466;2022-09-12T07:48:53;100467.84;;;25.33;48.96
63115;BME280;49208;50.874;6.466;2022-09-12T07:51:19;100464.19;;;25.05;50.69
63115;BME280;49208;50.874;6.466;2022-09-12T07:53:45;100466.84;;;24.77;48.91
63115;BME280;49208;50.874;6.466;2022-09-12T07:56:12;100463.25;;;24.57;50.69
63115;BME280;49208;50.874;6.466;2022-09-12T07:58:38;100463.41;;;24.75;50.72
63115;BME280;49208;50.874;6.466;2022-09-12T08:01:23;100463.56;;;24.34;50.67
63115;BME280;49208;50.874;6.466;2022-09-12T08:03:52;100460.97;;;24.23;51.83
63115;BME280;49208;50.874;6.466;2022-09-12T08:06:20;100460.13;;;24.03;52.21
63115;BME280;49208;50.874;6.466;2022-09-12T08:08:48;100463.53;;;23.55;52.39
63115;BME280;49208;50.874;6.466;2022-09-12T08:11:16;100464.09;;;22.97;54.35
63115;BME280;49208;50.874;6.466;2022-09-12T08:13:42;100463.66;;;22.50;55.73
63115;BME280;49208;50.874;6.466;2022-09-12T08:16:16;100464.13;;;22.23;57.02
63115;BME280;49208;50.874;6.466;2022-09-12T08:18:42;100458.03;;;21.98;59.71
63115;BME280;49208;50.874;6.466;2022-09-12T08:21:14;100462.66;;;21.75;59.76
63115;BME280;49208;50.874;6.466;2022-09-12T08:23:40;100462.06;;;21.49;59.24
63115;BME280;49208;50.874;6.466;2022-09-12T08:26:07;100466.84;;;21.79;62.65
63115;BME280;49208;50.874;6.466;2022-09-12T08:28:34;100469.47;;;22.02;59.19
63115;BME280;49208;50.874;6.466;2022-09-12T08:31:05;100458.22;;;22.29;58.48
63115;BME280;49208;50.874;6.466;2022-09-12T08:33:31;100464.06;;;22.87;56.16
63115;BME280;49208;50.874;6.466;2022-09-12T08:38:35;100458.66;;;24.67;52.91
63115;BME280;49208;50.874;6.466;2022-09-12T08:41:06;100462.78;;;25.38;53.11
63115;BME280;49208;50.874;6.466;2022-09-12T08:49:03;100464.16;;;25.52;49.10
63115;BME280;49208;50.874;6.466;2022-09-12T08:51:32;100471.75;;;25.58;52.43
63115;BME280;49208;50.874;6.466;2022-09-12T08:53:59;100470.94;;;25.48;50.91
63115;BME280;49208;50.874;6.466;2022-09-12T08:56:28;100465.69;;;25.36;50.01
63115;BME280;49208;50.874;6.466;2022-09-12T08:58:59;100462.59;;;25.12;50.77
63115;BME280;49208;50.874;6.466;2022-09-12T09:01:34;100468.06;;;25.02;53.71
63115;BME280;49208;50.874;6.466;2022-09-12T09:09:21;100442.06;;;24.80;54.49
63115;BME280;49208;50.874;6.466;2022-09-12T09:17:28;100439.94;;;24.54;54.38
63115;BME280;49208;50.874;6.466;2022-09-12T09:22:37;100446.22;;;24.26;52.63
63115;BME280;49208;50.874;6.466;2022-09-12T09:25:23;100433.19;;;24.29;56.26
63115;BME280;49208;50.874;6.466;2022-09-12T09:27:57;100433.91;;;24.12;54.03
63115;BME280;49208;50.874;6.466;2022-09-12T09:30:23;100429.88;;;23.96;55.74
63115;BME280;49208;50.874;6.466;2022-09-12T09:32:59;100433.03;;;24.11;57.32
63115;BME280;49208;50.874;6.466;2022-09-12T09:35:46;100430.31;;;24.21;55.17
63115;BME280;49208;50.874;6.466;2022-09-12T09:38:25;100421.19;;;24.22;54.39
63115;BME280;49208;50.874;6.466;2022-09-12T09:43:55;100423.59;;;24.45;54.35
63115;BME280;49208;50.874;6.466;2022-09-12T09:46:21;100418.00;;;24.46;53.32
63115;BME280;49208;50.874;6.466;2022-09-12T09:48:48;100417.13;;;24.36;53.08
63115;BME280;49208;50.874;6.466;2022-09-12T09:51:16;100413.00;;;24.32;53.49
63115;BME280;49208;50.874;6.466;2022-09-12T09:53:53;100413.84;;;24.42;54.12
63115;BME280;49208;50.874;6.466;2022-09-12T09:56:33;100405.72;;;24.52;53.46
63115;BME280;49208;50.874;6.466;2022-09-12T09:59:10;100402.66;;;24.65;54.53
63115;BME280;49208;50.874;6.466;2022-09-12T10:01:42;100403.38;;;24.67;53.44
63115;BME280;49208;50.874;6.466;2022-09-12T10:04:16;100402.97;;;24.42;54.09
63115;BME280;49208;50.874;6.466;2022-09-12T10:06:42;100392.81;;;24.34;53.47
63115;BME280;49208;50.874;6.466;2022-09-12T10:11:40;100392.66;;;24.46;53.84
63115;BME280;49208;50.874;6.466;2022-09-12T10:16:50;100390.66;;;24.38;54.23
63115;BME280;49208;50.874;6.466;2022-09-12T10:19:31;100379.66;;;24.49;56.63
63115;BME280;49208;50.874;6.466;2022-09-12T10:21:58;100377.72;;;24.69;54.78
63115;BME280;49208;50.874;6.466;2022-09-12T10:24:29;100373.56;;;24.65;52.33
63115;BME280;49208;50.874;6.466;2022-09-12T10:27:21;100372.59;;;24.66;52.80
63115;BME280;49208;50.874;6.466;2022-09-12T10:29:52;100370.56;;;24.78;53.01
63115;BME280;49208;50.874;6.466;2022-09-12T10:32:39;100367.84;;;24.78;51.42
63115;BME280;49208;50.874;6.466;2022-09-12T10:35:18;100366.19;;;24.95;53.58
63115;BME280;49208;50.874;6.466;2022-09-12T10:37:53;100361.19;;;25.18;51.71
63115;BME280;49208;50.874;6.466;2022-09-12T10:40:32;100363.22;;;25.26;51.14
63115;BME280;49208;50.874;6.466;2022-09-12T10:43:01;100354.72;;;25.29;48.94
63115;BME280;49208;50.874;6.466;2022-09-12T10:47:54;100350.72;;;25.23;48.81
63115;BME280;49208;50.874;6.466;2022-09-12T10:53:19;100345.00;;;25.16;46.92
63115;BME280;49208;50.874;6.466;2022-09-12T10:56:03;100333.00;;;25.09;47.04
63115;BME280;49208;50.874;6.466;2022-09-12T11:04:19;100329.88;;;25.04;48.25
63115;BME280;49208;50.874;6.466;2022-09-12T11:07:27;100317.81;;;25.07;46.72
63115;BME280;49208;50.874;6.466;2022-09-12T11:10:17;100322.91;;;25.19;45.30
63115;BME280;49208;50.874;6.466;2022-09-12T11:32:42;100288.47;;;26.00;42.46
63115;BME280;49208;50.874;6.466;2022-09-12T11:35:28;100290.50;;;25.80;42.57
63115;BME280;49208;50.874;6.466;2022-09-12T11:40:45;100284.44;;;25.68;43.95
63115;BME280;49208;50.874;6.466;2022-09-12T11:43:20;100283.44;;;25.69;42.27
63115;BME280;49208;50.874;6.466;2022-09-12T11:45:48;100275.72;;;25.47;41.50
63115;BME280;49208;50.874;6.466;2022-09-12T11:51:02;100276.41;;;25.67;42.14
63115;BME280;49208;50.874;6.466;2022-09-12T11:53:31;100266.13;;;25.78;43.05
63115;BME280;49208;50.874;6.466;2022-09-12T11:56:16;100271.78;;;25.85;41.54
63115;BME280;49208;50.874;6.466;2022-09-12T11:58:45;100270.78;;;25.86;41.60
63115;BME280;49208;50.874;6.466;2022-09-12T12:01:24;100272.44;;;25.97;39.74
63115;BME280;49208;50.874;6.466;2022-09-12T12:03:50;100258.94;;;25.95;40.59
63115;BME280;49208;50.874;6.466;2022-09-12T12:06:25;100251.63;;;25.96;40.18
63115;BME280;49208;50.874;6.466;2022-09-12T12:08:56;100259.56;;;26.07;39.50
63115;BME280;49208;50.874;6.466;2022-09-12T12:11:33;100256.03;;;26.15;39.52
63115;BME280;49208;50.874;6.466;2022-09-12T12:14:18;100259.28;;;26.18;38.75
63115;BME280;49208;50.874;6.466;2022-09-12T12:16:45;100249.94;;;26.21;39.02
63115;BME280;49208;50.874;6.466;2022-09-12T12:21:43;100249.72;;;26.14;40.21
63115;BME280;49208;50.874;6.466;2022-09-12T12:24:12;100249.06;;;26.20;38.27
63115;BME280;49208;50.874;6.466;2022-09-12T12:32:44;100225.91;;;26.25;39.42
63115;BME280;49208;50.874;6.466;2022-09-12T12:38:29;100222.59;;;26.13;37.43
63115;BME280;49208;50.874;6.466;2022-09-12T12:43:51;100216.50;;;26.19;38.92
63115;BME280;49208;50.874;6.466;2022-09-12T12:46:24;100214.28;;;26.23;37.44
63115;BME280;49208;50.874;6.466;2022-09-12T12:51:28;100202.53;;;26.22;37.71
63115;BME280;49208;50.874;6.466;2022-09-12T12:53:56;100202.22;;;26.25;36.55
63115;BME280;49208;50.874;6.466;2022-09-12T12:56:38;100202.88;;;26.19;37.12
63115;BME280;49208;50.874;6.466;2022-09-12T12:59:20;100199.91;;;26.12;36.96
63115;BME280;49208;50.874;6.466;2022-09-12T13:01:53;100193.06;;;26.08;36.33
63115;BME280;49208;50.874;6.466;2022-09-12T13:04:26;100197.66;;;26.08;35.82
63115;BME280;49208;50.874;6.466;2022-09-12T13:07:07;100193.94;;;26.09;36.41
63115;BME280;49208;50.874;6.466;2022-09-12T13:09:35;100197.50;;;26.09;35.25
63115;BME280;49208;50.874;6.466;2022-09-12T13:12:07;100186.44;;;26.11;37.37
63115;BME280;49208;50.874;6.466;2022-09-12T13:14:47;100194.19;;;26.24;36.96
63115;BME280;49208;50.874;6.466;2022-09-12T13:19:45;100187.97;;;26.48;36.68
63115;BME280;49208;50.874;6.466;2022-09-12T13:22:11;100189.16;;;26.45;35.12
63115;BME280;49208;50.874;6.466;2022-09-12T13:24:49;100183.53;;;26.47;36.78
63115;BME280;49208;50.874;6.466;2022-09-12T13:27:24;100189.53;;;26.50;36.61
63115;BME280;49208;50.874;6.466;2022-09-12T13:30:07;100185.47;;;26.54;37.06
63115;BME280;49208;50.874;6.466;2022-09-12T13:32:33;100185.47;;;26.54;37.87
63115;BME280;49208;50.874;6.466;2022-09-12T13:35:04;100183.13;;;26.59;36.06
63115;BME280;49208;50.874;6.466;2022-09-12T13:43:50;100176.22;;;26.47;35.80
63115;BME280;49208;50.874;6.466;2022-09-12T13:46:25;100171.91;;;26.36;36.43
63115;BME280;49208;50.874;6.466;2022-09-12T13:48:52;100168.09;;;26.21;38.49
63115;BME280;49208;50.874;6.466;2022-09-12T13:51:23;100158.47;;;26.09;36.79
63115;BME280;49208;50.874;6.466;2022-09-12T13:53:56;100166.81;;;26.07;38.19
63115;BME280;49208;50.874;6.466;2022-09-12T13:56:24;100163.25;;;26.07;37.74
63115;BME280;49208;50.874;6.466;2022-09-12T13:58:52;100162.75;;;26.11;37.47
63115;BME280;49208;50.874;6.466;2022-09-12T14:01:19;100167.50;;;26.09;38.27
63115;BME280;49208;50.874;6.466;2022-09-12T14:03:53;100158.81;;;26.14;37.65
63115;BME280;49208;50.874;6.466;2022-09-12T14:06:48;100148.59;;;26.16;38.82
63115;BME280;49208;50.874;6.466;2022-09-12T14:14:47;100132.44;;;26.23;38.65
63115;BME280;49208;50.874;6.466;2022-09-12T14:17:34;100134.16;;;26.24;37.58
63115;BME280;49208;50.874;6.466;2022-09-12T14:20:01;100124.91;;;26.16;38.16
63115;BME280;49208;50.874;6.466;2022-09-12T14:22:27;100121.47;;;26.14;38.17
63115;BME280;49208;50.874;6.466;2022-09-12T14:24:55;100122.81;;;26.10;38.19
63115;BME280;49208;50.874;6.466;2022-09-12T14:27:25;100123.16;;;26.07;38.40
63115;BME280;49208;50.874;6.466;2022-09-12T14:30:06;100121.28;;;26.08;39.25
63115;BME280;49208;50.874;6.466;2022-09-12T14:32:33;100116.16;;;26.05;39.95
63115;BME280;49208;50.874;6.466;2022-09-12T14:35:17;100117.31;;;26.02;39.31
63115;BME280;49208;50.874;6.466;2022-09-12T14:37:46;100116.28;;;25.95;39.74
63115;BME280;49208;50.874;6.466;2022-09-12T14:40:19;100115.06;;;25.89;39.96
63115;BME280;49208;50.874;6.466;2022-09-12T14:42:45;100115.06;;;25.89;40.11
63115;BME280;49208;50.874;6.466;2022-09-12T14:45:19;100114.31;;;25.87;39.53
63115;BME280;49208;50.874;6.466;2022-09-12T14:47:49;100106.16;;;25.87;39.06
63115;BME280;49208;50.874;6.466;2022-09-12T14:50:26;100100.34;;;25.82;37.86
63115;BME280;49208;50.874;6.466;2022-09-12T14:53:18;100110.75;;;25.87;37.29
63115;BME280;49208;50.874;6.466;2022-09-12T14:55:57;100106.72;;;25.91;37.21
63115;BME280;49208;50.874;6.466;2022-09-12T14:58:25;100107.88;;;25.88;37.55
63115;BME280;49208;50.874;6.466;2022-09-12T15:03:29;100107.63;;;25.81;38.41
63115;BME280;49208;50.874;6.466;2022-09-12T15:05:55;100108.81;;;25.79;39.45
63115;BME280;49208;50.874;6.466;2022-09-12T15:08:22;100104.41;;;25.78;39.38
63115;BME280;49208;50.874;6.466;2022-09-12T15:10:48;100111.19;;;25.74;39.69
63115;BME280;49208;50.874;6.466;2022-09-12T15:13:16;100108.97;;;25.69;39.87
63115;BME280;49208;50.874;6.466;2022-09-12T15:15:54;100106.38;;;25.68;39.63
63115;BME280;49208;50.874;6.466;2022-09-12T15:18:23;100098.75;;;25.71;38.92
63115;BME280;49208;50.874;6.466;2022-09-12T15:20:59;100092.59;;;25.69;39.09
63115;BME280;49208;50.874;6.466;2022-09-12T15:23:33;100092.75;;;25.68;39.41
63115;BME280;49208;50.874;6.466;2022-09-12T15:26:00;100093.25;;;25.63;39.97